Guelph, North Dakota
Current Conditions -  °F | °C
As of 4:35 AM on Thursday 27 Nov 2014 (Local Time) from KGWR Reporting Station
Clear Clear  
Wind Chill: -29°   Ceiling: Unl
Heat Index: -15°   Visibility: 10mi
Dew Point: -22°   Wind: 6mph
Humidity: 70%   Direction: 260°W
Pressure: 30.52"   Gusts: NA
Location:  46.1099°N, 98.1335°W
Report Text: KGWR 271035Z AUTO 26005KT 10SM CLR M26/M30 A3052 RMK A01 P000
Loading
Personal Weather Stations






























Interactive Weather Map New forecast layout! Learn more

10-Day Weather Forecast

Advertisements
Track Severe Weather on mobile